createdAt,value
2023-05-14T00:00:22.238Z,12.70
2023-05-14T00:02:48.913Z,12.58
2023-05-14T00:05:15.717Z,12.46
2023-05-14T00:07:42.145Z,12.52
2023-05-14T00:10:08.926Z,12.48
2023-05-14T00:12:35.538Z,12.46
2023-05-14T00:15:02.196Z,12.53
2023-05-14T00:17:28.633Z,12.58
2023-05-14T00:19:55.175Z,12.53
2023-05-14T00:22:21.585Z,12.38
2023-05-14T00:24:48.038Z,12.31
2023-05-14T00:27:14.768Z,12.36
2023-05-14T00:29:41.136Z,12.44
2023-05-14T00:32:07.909Z,12.45
2023-05-14T00:34:34.975Z,12.54
2023-05-14T00:37:01.373Z,12.56
2023-05-14T00:39:27.956Z,12.49
2023-05-14T00:41:54.393Z,12.46
2023-05-14T00:44:20.827Z,12.36
2023-05-14T00:46:47.421Z,12.27
2023-05-14T00:49:13.884Z,12.46
2023-05-14T00:51:41.475Z,12.45
2023-05-14T00:54:08.220Z,12.31
2023-05-14T00:56:35.354Z,12.18
2023-05-14T00:59:01.870Z,12.39
2023-05-14T01:01:28.680Z,12.38
2023-05-14T01:03:57.863Z,12.38
2023-05-14T01:06:52.497Z,12.46
2023-05-14T01:09:29.732Z,12.26
2023-05-14T01:12:02.943Z,12.47
2023-05-14T01:14:48.039Z,12.43
2023-05-14T01:17:19.919Z,12.17
2023-05-14T01:19:47.738Z,12.28
2023-05-14T01:22:14.525Z,12.25
2023-05-14T01:24:41.094Z,12.33
2023-05-14T01:27:23.416Z,12.32
2023-05-14T01:30:10.268Z,12.17
2023-05-14T01:32:39.020Z,12.18
2023-05-14T01:35:07.910Z,12.13
2023-05-14T01:37:36.398Z,12.17
2023-05-14T01:40:04.527Z,12.02
2023-05-14T01:42:31.211Z,12.03
2023-05-14T01:44:58.056Z,11.96
2023-05-14T01:47:24.576Z,12.02
2023-05-14T01:49:50.985Z,12.00
2023-05-14T01:52:20.895Z,11.99
2023-05-14T01:54:48.205Z,11.92
2023-05-14T01:57:14.606Z,11.93
2023-05-14T01:59:40.984Z,11.89
2023-05-14T02:02:07.418Z,11.87
2023-05-14T02:04:33.781Z,11.82
2023-05-14T02:07:00.621Z,11.84
2023-05-14T02:09:27.142Z,11.77
2023-05-14T02:11:53.537Z,11.87
2023-05-14T02:14:19.929Z,11.90
2023-05-14T02:16:46.310Z,11.92
2023-05-14T02:19:12.796Z,11.93
2023-05-14T02:21:39.272Z,11.89
2023-05-14T02:24:05.793Z,11.88
2023-05-14T02:26:32.408Z,11.93
2023-05-14T02:28:58.921Z,11.94
2023-05-14T02:31:25.376Z,12.09
2023-05-14T02:33:51.813Z,11.98
2023-05-14T02:36:18.208Z,11.89
2023-05-14T02:38:44.688Z,11.79
2023-05-14T02:41:11.086Z,11.79
2023-05-14T02:43:37.479Z,11.89
2023-05-14T02:46:04.075Z,11.79
2023-05-14T02:48:30.584Z,11.83
2023-05-14T02:50:56.934Z,11.88
2023-05-14T02:53:23.310Z,11.87
2023-05-14T02:55:49.694Z,11.94
2023-05-14T02:58:16.133Z,11.93
2023-05-14T03:00:42.666Z,11.92
2023-05-14T03:03:09.557Z,11.62
2023-05-14T03:05:36.481Z,11.76
2023-05-14T03:08:02.954Z,11.76
2023-05-14T03:10:29.424Z,11.70
2023-05-14T03:12:55.832Z,11.95
2023-05-14T03:15:22.288Z,11.90
2023-05-14T03:17:49.158Z,11.65
2023-05-14T03:20:15.786Z,11.59
2023-05-14T03:22:42.261Z,11.51
2023-05-14T03:25:09.012Z,11.44
2023-05-14T03:27:35.568Z,11.29
2023-05-14T03:30:02.096Z,11.35
2023-05-14T03:32:28.558Z,11.29
2023-05-14T03:34:54.987Z,11.28
2023-05-14T03:37:21.603Z,11.28
2023-05-14T03:39:47.959Z,11.37
2023-05-14T03:42:14.345Z,11.38
2023-05-14T03:44:40.784Z,11.40
2023-05-14T03:47:07.187Z,11.39
2023-05-14T03:49:33.585Z,11.59
2023-05-14T03:51:59.962Z,11.62
2023-05-14T03:54:26.729Z,11.46
2023-05-14T03:56:53.149Z,11.61
2023-05-14T03:59:19.537Z,11.64
2023-05-14T04:01:45.944Z,11.66
2023-05-14T04:04:12.436Z,11.66
2023-05-14T04:06:38.985Z,11.63
2023-05-14T04:09:05.466Z,11.57
2023-05-14T04:11:31.869Z,11.61
2023-05-14T04:13:58.285Z,11.61
2023-05-14T04:16:24.768Z,11.54
2023-05-14T04:18:51.213Z,11.54
2023-05-14T04:21:17.704Z,11.62
2023-05-14T04:23:44.075Z,11.60
2023-05-14T04:26:10.540Z,11.69
2023-05-14T04:28:37.001Z,11.69
2023-05-14T04:31:03.788Z,11.74
2023-05-14T04:33:30.178Z,11.75
2023-05-14T04:35:56.745Z,11.73
2023-05-14T04:38:23.247Z,11.75
2023-05-14T04:40:49.631Z,11.77
2023-05-14T04:43:17.464Z,11.92
2023-05-14T04:45:43.933Z,11.97
2023-05-14T04:48:10.517Z,11.95
2023-05-14T04:50:36.969Z,12.11
2023-05-14T04:53:03.392Z,12.19
2023-05-14T04:55:30.002Z,12.15
2023-05-14T04:57:56.477Z,12.32
2023-05-14T05:00:23.288Z,12.38
2023-05-14T05:02:49.911Z,12.54
2023-05-14T05:05:16.321Z,12.62
2023-05-14T05:07:42.755Z,12.58
2023-05-14T05:10:09.487Z,12.74
2023-05-14T05:12:35.899Z,12.77
2023-05-14T05:15:02.268Z,13.02
2023-05-14T05:17:29.455Z,13.27
2023-05-14T05:19:55.872Z,13.11
2023-05-14T05:22:22.312Z,13.04
2023-05-14T05:24:49.944Z,13.09
2023-05-14T05:27:16.605Z,13.27
2023-05-14T05:29:44.479Z,13.61
2023-05-14T05:32:10.976Z,13.82
2023-05-14T05:34:37.488Z,13.84
2023-05-14T05:37:05.822Z,13.85
2023-05-14T05:39:34.757Z,13.86
2023-05-14T05:42:04.766Z,14.23
2023-05-14T05:44:31.223Z,14.30
2023-05-14T05:46:57.837Z,14.55
2023-05-14T05:49:24.360Z,14.23
2023-05-14T05:51:50.761Z,14.59
2023-05-14T05:54:17.149Z,14.84
2023-05-14T05:56:43.689Z,14.84
2023-05-14T05:59:10.164Z,14.78
2023-05-14T06:01:36.964Z,14.85
2023-05-14T06:04:05.523Z,14.88
2023-05-14T06:06:32.857Z,14.92
2023-05-14T06:08:59.385Z,14.92
2023-05-14T06:11:26.558Z,14.83
2023-05-14T06:13:53.149Z,14.57
2023-05-14T06:16:19.696Z,14.89
2023-05-14T06:18:46.480Z,14.87
2023-05-14T06:21:12.930Z,14.77
2023-05-14T06:23:40.222Z,14.90
2023-05-14T06:26:06.695Z,14.85
2023-05-14T06:28:33.088Z,14.87
2023-05-14T06:30:59.462Z,14.95
2023-05-14T06:33:30.790Z,14.97
2023-05-14T06:36:01.068Z,15.06
2023-05-14T06:38:27.461Z,15.36
2023-05-14T06:40:53.876Z,15.65
2023-05-14T06:43:20.756Z,16.03
2023-05-14T06:45:51.067Z,16.50
2023-05-14T06:48:21.180Z,16.92
2023-05-14T06:50:49.064Z,17.29
2023-05-14T06:53:15.666Z,17.74
2023-05-14T06:55:42.186Z,18.12
2023-05-14T06:58:09.382Z,18.49
2023-05-14T07:00:35.886Z,18.77
2023-05-14T07:03:02.361Z,18.20
2023-05-14T07:05:29.050Z,17.84
2023-05-14T07:07:55.461Z,17.72
2023-05-14T07:10:22.361Z,17.44
2023-05-14T07:12:49.534Z,17.64
2023-05-14T07:15:16.003Z,18.12
2023-05-14T07:17:42.498Z,17.96
2023-05-14T07:20:09.457Z,17.93
2023-05-14T07:22:35.866Z,18.71
2023-05-14T07:25:02.855Z,18.89
2023-05-14T07:27:29.330Z,19.10
2023-05-14T07:29:55.723Z,19.22
2023-05-14T07:32:22.176Z,19.64
2023-05-14T07:34:48.821Z,19.13
2023-05-14T07:37:15.296Z,19.46
2023-05-14T07:39:41.776Z,19.18
2023-05-14T07:42:08.248Z,19.61
2023-05-14T07:44:34.601Z,19.31
2023-05-14T07:47:01.018Z,19.41
2023-05-14T07:49:27.465Z,19.16
2023-05-14T07:51:53.832Z,19.20
2023-05-14T07:54:20.348Z,19.46
2023-05-14T07:56:46.762Z,19.29
2023-05-14T07:59:13.197Z,19.39
2023-05-14T08:01:39.673Z,19.60
2023-05-14T08:04:06.362Z,19.84
2023-05-14T08:06:33.213Z,19.73
2023-05-14T08:08:59.707Z,19.63
2023-05-14T08:11:26.178Z,19.28
2023-05-14T08:13:52.772Z,19.26
2023-05-14T08:16:19.302Z,19.25
2023-05-14T08:18:45.740Z,18.89
2023-05-14T08:21:12.166Z,19.12
2023-05-14T08:23:38.734Z,18.76
2023-05-14T08:26:05.204Z,19.32
2023-05-14T08:28:31.566Z,19.05
2023-05-14T08:30:58.033Z,18.81
2023-05-14T08:33:24.522Z,19.25
2023-05-14T08:35:54.596Z,19.62
2023-05-14T08:38:20.985Z,20.09
2023-05-14T08:40:56.306Z,19.89
2023-05-14T08:43:26.953Z,20.65
2023-05-14T08:46:00.555Z,20.46
2023-05-14T08:48:32.047Z,20.67
2023-05-14T08:50:59.658Z,20.56
2023-05-14T08:53:26.203Z,21.05
2023-05-14T08:55:54.012Z,20.96
2023-05-14T08:58:20.747Z,21.57
2023-05-14T09:00:47.662Z,22.17
2023-05-14T09:03:14.968Z,22.15
2023-05-14T09:05:41.899Z,22.11
2023-05-14T09:08:08.299Z,22.84
2023-05-14T09:10:34.695Z,22.95
2023-05-14T09:13:01.104Z,22.24
2023-05-14T09:15:29.635Z,21.81
2023-05-14T09:17:56.694Z,22.27
2023-05-14T09:20:24.829Z,22.01
2023-05-14T09:22:54.826Z,22.27
2023-05-14T09:25:27.036Z,22.39
2023-05-14T09:27:56.139Z,22.81
2023-05-14T09:30:24.982Z,23.29
2023-05-14T09:32:54.274Z,23.22
2023-05-14T09:35:22.617Z,23.44
2023-05-14T09:37:53.512Z,23.73
2023-05-14T09:40:21.713Z,23.69
2023-05-14T09:42:49.179Z,23.94
2023-05-14T09:45:16.160Z,24.24
2023-05-14T09:47:43.053Z,23.98
2023-05-14T09:50:09.766Z,23.92
2023-05-14T09:52:37.238Z,24.24
2023-05-14T09:55:04.115Z,24.05
2023-05-14T09:57:30.910Z,24.09
2023-05-14T09:59:57.468Z,23.96
2023-05-14T10:02:37.481Z,24.41
2023-05-14T10:05:06.411Z,24.99
2023-05-14T10:07:42.138Z,24.40
2023-05-14T10:10:13.448Z,24.17
2023-05-14T10:12:40.688Z,24.76
2023-05-14T10:15:23.873Z,25.40
2023-05-14T10:17:56.453Z,25.52
2023-05-14T10:20:25.281Z,26.17
2023-05-14T10:22:52.142Z,26.01
2023-05-14T10:25:18.881Z,25.42
2023-05-14T10:27:45.643Z,25.26
2023-05-14T10:30:12.911Z,25.24
2023-05-14T10:32:41.798Z,25.99
2023-05-14T10:35:20.545Z,24.97
2023-05-14T10:37:47.151Z,24.60
2023-05-14T10:40:14.119Z,23.47
2023-05-14T10:42:43.228Z,23.48
2023-05-14T10:45:15.028Z,24.15
2023-05-14T10:47:47.062Z,25.82
2023-05-14T10:50:17.508Z,25.98
2023-05-14T10:52:45.604Z,25.85
2023-05-14T10:55:16.947Z,25.63
2023-05-14T10:57:45.533Z,25.37
2023-05-14T11:00:13.936Z,25.60
2023-05-14T11:02:44.876Z,25.37
2023-05-14T11:05:15.326Z,25.00
2023-05-14T11:07:46.034Z,25.05
2023-05-14T11:10:16.097Z,25.59
2023-05-14T11:12:44.986Z,26.23
2023-05-14T11:15:13.995Z,25.42
2023-05-14T11:17:42.630Z,25.70
2023-05-14T11:20:10.609Z,25.75
2023-05-14T11:22:38.696Z,25.91
2023-05-14T11:25:06.287Z,26.20
2023-05-14T11:27:35.737Z,25.24
2023-05-14T11:30:03.877Z,25.51
2023-05-14T11:32:32.983Z,25.07
2023-05-14T11:34:59.456Z,25.42
2023-05-14T11:37:25.956Z,25.70
2023-05-14T11:39:54.308Z,26.65
2023-05-14T11:42:22.360Z,27.32
2023-05-14T11:44:51.548Z,25.59
2023-05-14T11:47:20.488Z,26.14
2023-05-14T11:49:47.660Z,26.79
2023-05-14T11:52:15.608Z,27.06
2023-05-14T11:54:43.746Z,26.92
2023-05-14T11:57:16.118Z,26.65
2023-05-14T11:59:42.665Z,26.94
2023-05-14T12:02:13.938Z,25.88
2023-05-14T12:04:42.271Z,26.29
2023-05-14T12:07:15.034Z,25.55
2023-05-14T12:09:48.942Z,26.34
2023-05-14T12:12:19.932Z,26.54
2023-05-14T12:14:47.326Z,27.26
2023-05-14T12:17:21.942Z,26.65
2023-05-14T12:19:52.185Z,26.76
2023-05-14T12:22:23.066Z,26.94
2023-05-14T12:24:54.129Z,26.97
2023-05-14T12:27:26.330Z,25.93
2023-05-14T12:30:20.785Z,26.38
2023-05-14T12:32:51.754Z,26.33
2023-05-14T12:35:18.509Z,25.22
2023-05-14T12:37:44.876Z,25.60
2023-05-14T12:40:11.757Z,25.68
2023-05-14T12:42:38.150Z,25.58
2023-05-14T12:45:07.789Z,25.62
2023-05-14T12:47:35.070Z,26.07
2023-05-14T12:50:02.030Z,26.49
2023-05-14T12:52:37.935Z,26.77
2023-05-14T12:55:07.112Z,26.66
2023-05-14T12:57:35.288Z,25.96
2023-05-14T13:00:02.327Z,25.93
2023-05-14T13:02:28.717Z,26.34
2023-05-14T13:04:55.100Z,26.23
2023-05-14T13:07:21.516Z,26.27
2023-05-14T13:09:47.937Z,26.24
2023-05-14T13:12:14.373Z,26.10
2023-05-14T13:14:40.900Z,25.50
2023-05-14T13:17:08.128Z,25.65
2023-05-14T13:19:34.730Z,25.92
2023-05-14T13:22:01.131Z,25.01
2023-05-14T13:24:27.637Z,24.62
2023-05-14T13:26:54.004Z,25.13
2023-05-14T13:29:20.406Z,24.89
2023-05-14T13:31:47.115Z,24.74
2023-05-14T13:34:13.571Z,25.58
2023-05-14T13:36:40.655Z,25.93
2023-05-14T13:39:07.260Z,25.74
2023-05-14T13:41:35.666Z,25.32
2023-05-14T13:44:02.071Z,25.06
2023-05-14T13:46:28.826Z,25.60
2023-05-14T13:48:55.332Z,25.74
2023-05-14T13:51:22.844Z,25.82
2023-05-14T13:53:49.802Z,25.96
2023-05-14T13:56:16.204Z,25.75
2023-05-14T13:58:42.636Z,25.77
2023-05-14T14:01:09.205Z,24.99
2023-05-14T14:03:35.610Z,25.65
2023-05-14T14:06:01.986Z,25.80
2023-05-14T14:08:29.580Z,25.41
2023-05-14T14:10:56.034Z,25.14
2023-05-14T14:13:22.934Z,25.28
2023-05-14T14:15:50.040Z,25.24
2023-05-14T14:18:16.568Z,25.41
2023-05-14T14:20:42.985Z,25.05
2023-05-14T14:23:09.356Z,24.41
2023-05-14T14:25:35.831Z,25.08
2023-05-14T14:28:02.210Z,25.10
2023-05-14T14:30:28.633Z,25.31
2023-05-14T14:32:55.095Z,24.98
2023-05-14T14:35:21.749Z,24.61
2023-05-14T14:37:53.594Z,25.08
2023-05-14T14:40:20.200Z,24.24
2023-05-14T14:42:46.620Z,24.50
2023-05-14T14:45:13.259Z,24.30
2023-05-14T14:47:43.673Z,25.11
2023-05-14T14:50:10.206Z,25.12
2023-05-14T14:52:36.773Z,25.68
2023-05-14T14:55:03.318Z,25.00
2023-05-14T14:57:29.748Z,24.98
2023-05-14T14:59:56.268Z,25.31
2023-05-14T15:02:22.902Z,25.13
2023-05-14T15:04:49.367Z,24.90
2023-05-14T15:07:20.211Z,24.75
2023-05-14T15:09:46.568Z,25.02
2023-05-14T15:12:14.140Z,25.31
2023-05-14T15:14:40.559Z,25.22
2023-05-14T15:17:07.029Z,25.29
2023-05-14T15:19:33.463Z,25.07
2023-05-14T15:21:59.890Z,25.09
2023-05-14T15:24:26.299Z,24.56
2023-05-14T15:26:53.774Z,24.56
2023-05-14T15:29:20.463Z,24.72
2023-05-14T15:31:47.071Z,24.56
2023-05-14T15:34:13.539Z,24.35
2023-05-14T15:36:40.138Z,24.75
2023-05-14T15:39:06.653Z,24.50
2023-05-14T15:41:34.402Z,24.27
2023-05-14T15:44:00.803Z,24.47
2023-05-14T15:46:27.387Z,24.59
2023-05-14T15:48:53.891Z,24.95
2023-05-14T15:51:20.326Z,25.05
2023-05-14T15:53:46.793Z,24.85
2023-05-14T15:56:13.236Z,24.84
2023-05-14T15:58:39.660Z,25.05
2023-05-14T16:01:06.040Z,25.28
2023-05-14T16:03:32.540Z,25.03
2023-05-14T16:05:59.530Z,25.06
2023-05-14T16:08:25.893Z,25.01
2023-05-14T16:10:52.276Z,25.10
2023-05-14T16:13:19.414Z,24.86
2023-05-14T16:15:45.862Z,24.48
2023-05-14T16:18:12.312Z,24.45
2023-05-14T16:20:39.175Z,24.75
2023-05-14T16:23:05.578Z,24.14
2023-05-14T16:25:32.000Z,24.07
2023-05-14T16:27:58.417Z,24.01
2023-05-14T16:30:25.148Z,23.70
2023-05-14T16:32:51.847Z,23.80
2023-05-14T16:35:18.360Z,23.94
2023-05-14T16:37:44.881Z,23.79
2023-05-14T16:40:11.994Z,23.80
2023-05-14T16:42:38.715Z,23.41
2023-05-14T16:45:05.445Z,23.21
2023-05-14T16:47:31.880Z,23.13
2023-05-14T16:49:58.638Z,23.24
2023-05-14T16:52:25.080Z,23.55
2023-05-14T16:54:51.440Z,23.48
2023-05-14T16:57:17.917Z,23.53
2023-05-14T16:59:44.268Z,23.33
2023-05-14T17:02:10.618Z,23.11
2023-05-14T17:04:39.304Z,22.92
2023-05-14T17:07:06.019Z,23.21
2023-05-14T17:09:32.386Z,23.00
2023-05-14T17:11:58.838Z,22.92
2023-05-14T17:14:25.212Z,22.85
2023-05-14T17:16:51.658Z,22.62
2023-05-14T17:19:18.077Z,22.52
2023-05-14T17:21:44.449Z,22.72
2023-05-14T17:24:10.927Z,22.43
2023-05-14T17:26:40.090Z,22.42
2023-05-14T17:29:06.473Z,22.24
2023-05-14T17:31:32.940Z,22.05
2023-05-14T17:33:59.402Z,21.81
2023-05-14T17:36:25.857Z,21.71
2023-05-14T17:38:52.484Z,21.74
2023-05-14T17:41:18.916Z,21.18
2023-05-14T17:43:45.302Z,20.88
2023-05-14T17:46:11.786Z,20.92
2023-05-14T17:48:38.233Z,20.40
2023-05-14T17:51:04.701Z,20.47
2023-05-14T17:53:31.150Z,20.62
2023-05-14T17:55:57.629Z,20.20
2023-05-14T17:58:24.956Z,20.20
2023-05-14T18:00:51.467Z,20.17
2023-05-14T18:03:20.224Z,19.71
2023-05-14T18:05:46.738Z,19.61
2023-05-14T18:08:14.454Z,19.44
2023-05-14T18:10:40.875Z,19.11
2023-05-14T18:13:07.253Z,19.05
2023-05-14T18:15:33.643Z,18.61
2023-05-14T18:18:00.106Z,18.74
2023-05-14T18:20:26.562Z,18.43
2023-05-14T18:22:52.935Z,18.41
2023-05-14T18:25:19.419Z,18.22
2023-05-14T18:27:45.916Z,17.96
2023-05-14T18:30:14.815Z,18.13
2023-05-14T18:32:43.581Z,18.00
2023-05-14T18:35:11.001Z,17.63
2023-05-14T18:37:38.400Z,17.51
2023-05-14T18:40:06.901Z,17.64
2023-05-14T18:42:34.557Z,17.48
2023-05-14T18:45:01.465Z,17.49
2023-05-14T18:47:28.114Z,17.33
2023-05-14T18:49:55.802Z,17.23
2023-05-14T18:52:22.819Z,17.03
2023-05-14T18:54:50.641Z,16.91
2023-05-14T18:57:17.222Z,16.79
2023-05-14T18:59:43.608Z,16.73
2023-05-14T19:02:10.156Z,16.50
2023-05-14T19:04:50.656Z,16.62
2023-05-14T19:07:18.656Z,16.49
2023-05-14T19:09:45.681Z,16.29
2023-05-14T19:12:12.401Z,16.30
2023-05-14T19:14:38.827Z,16.34
2023-05-14T19:17:05.624Z,16.26
2023-05-14T19:19:32.511Z,15.92
2023-05-14T19:21:58.939Z,16.18
2023-05-14T19:24:25.413Z,16.05
2023-05-14T19:26:51.860Z,15.84
2023-05-14T19:29:18.287Z,15.84
2023-05-14T19:31:44.772Z,15.56
2023-05-14T19:34:11.182Z,15.59
2023-05-14T19:36:37.657Z,15.53
2023-05-14T19:39:04.414Z,15.53
2023-05-14T19:41:30.991Z,15.40
2023-05-14T19:43:57.540Z,15.15
2023-05-14T19:46:24.143Z,15.40
2023-05-14T19:48:50.659Z,15.28
2023-05-14T19:51:17.037Z,15.12
2023-05-14T19:53:43.544Z,14.79
2023-05-14T19:56:09.957Z,15.05
2023-05-14T19:58:36.402Z,14.81
2023-05-14T20:01:03.071Z,14.99
2023-05-14T20:03:29.804Z,14.88
2023-05-14T20:05:56.507Z,14.83
2023-05-14T20:08:22.899Z,14.85
2023-05-14T20:10:49.437Z,14.73
2023-05-14T20:13:16.181Z,14.81
2023-05-14T20:15:45.522Z,14.75
2023-05-14T20:18:12.326Z,14.38
2023-05-14T20:20:39.983Z,14.40
2023-05-14T20:23:06.497Z,14.51
2023-05-14T20:25:33.264Z,14.51
2023-05-14T20:28:02.510Z,14.38
2023-05-14T20:30:28.920Z,14.48
2023-05-14T20:32:55.474Z,14.32
2023-05-14T20:35:21.954Z,14.59
2023-05-14T20:37:49.776Z,14.42
2023-05-14T20:40:16.404Z,14.32
2023-05-14T20:42:42.877Z,14.23
2023-05-14T20:45:10.335Z,14.19
2023-05-14T20:47:36.885Z,14.20
2023-05-14T20:50:04.537Z,14.22
2023-05-14T20:52:30.963Z,14.26
2023-05-14T20:54:59.346Z,14.19
2023-05-14T20:57:27.834Z,14.14
2023-05-14T20:59:54.237Z,14.06
2023-05-14T21:02:20.892Z,14.09
2023-05-14T21:04:47.551Z,14.08
2023-05-14T21:07:13.987Z,13.93
2023-05-14T21:09:40.445Z,13.91
2023-05-14T21:12:07.243Z,13.95
2023-05-14T21:14:33.699Z,13.88
2023-05-14T21:17:00.115Z,13.88
2023-05-14T21:19:26.591Z,13.82
2023-05-14T21:21:52.966Z,13.74
2023-05-14T21:24:19.437Z,13.49
2023-05-14T21:26:46.259Z,13.59
2023-05-14T21:29:12.665Z,13.64
2023-05-14T21:31:39.203Z,13.69
2023-05-14T21:34:05.761Z,13.66
2023-05-14T21:36:32.263Z,13.65
2023-05-14T21:38:58.657Z,13.62
2023-05-14T21:41:25.110Z,13.52
2023-05-14T21:43:51.504Z,13.59
2023-05-14T21:46:17.999Z,13.53
2023-05-14T21:48:44.570Z,13.58
2023-05-14T21:51:11.330Z,13.62
2023-05-14T21:53:37.704Z,13.60
2023-05-14T21:56:04.376Z,13.55
2023-05-14T21:58:30.786Z,13.59
2023-05-14T22:00:57.776Z,13.51
2023-05-14T22:03:24.375Z,13.48
2023-05-14T22:05:50.812Z,13.35
2023-05-14T22:08:17.597Z,13.43
2023-05-14T22:10:44.389Z,13.45
2023-05-14T22:13:11.002Z,13.39
2023-05-14T22:15:37.872Z,13.34
2023-05-14T22:18:04.618Z,13.32
2023-05-14T22:20:31.124Z,13.28
2023-05-14T22:22:57.566Z,13.34
2023-05-14T22:25:24.192Z,13.25
2023-05-14T22:27:50.804Z,13.15
2023-05-14T22:30:17.262Z,13.11
2023-05-14T22:32:43.843Z,13.18
2023-05-14T22:35:11.157Z,13.11
2023-05-14T22:37:37.638Z,13.11
2023-05-14T22:40:05.221Z,13.08
2023-05-14T22:42:31.616Z,13.00
2023-05-14T22:44:57.994Z,12.98
2023-05-14T22:47:25.803Z,13.02
2023-05-14T22:49:52.454Z,13.00
2023-05-14T22:52:18.946Z,13.04
2023-05-14T22:54:46.592Z,13.02
2023-05-14T22:57:13.090Z,13.01
2023-05-14T22:59:39.543Z,12.96
2023-05-14T23:02:06.833Z,13.09
2023-05-14T23:04:33.390Z,12.96
2023-05-14T23:06:59.869Z,13.01
2023-05-14T23:09:26.324Z,13.03
2023-05-14T23:11:52.728Z,12.92
2023-05-14T23:14:19.640Z,12.97
2023-05-14T23:16:46.095Z,12.97
2023-05-14T23:19:12.670Z,12.93
2023-05-14T23:21:39.215Z,12.92
2023-05-14T23:24:06.201Z,12.88
2023-05-14T23:26:32.771Z,12.91
2023-05-14T23:28:59.244Z,12.89
2023-05-14T23:31:25.817Z,12.92
2023-05-14T23:33:52.210Z,12.97
2023-05-14T23:36:18.682Z,12.89
2023-05-14T23:38:45.330Z,12.82
2023-05-14T23:41:11.707Z,12.87
2023-05-14T23:43:38.082Z,12.93
2023-05-14T23:46:04.593Z,12.61
2023-05-14T23:48:31.308Z,12.93
2023-05-14T23:50:57.700Z,12.90
2023-05-14T23:53:24.152Z,12.93
2023-05-14T23:55:50.666Z,13.03
2023-05-14T23:58:17.162Z,12.83
